Time;durP1;ratioP1;P1;durP2;ratioP2;P2;SDS_P1;SDS_P2;PMS_P1;PMS_P2;Temp;Humidity;BMP_temperature;BMP_pressure;BME280_temperature;BME280_humidity;BME280_pressure;Samples;Min_cycle;Max_cycle;Signal;HPM_P1;HPM_P2
2022/07/15 00:00:38;;;;;;;;;;;20.10;65.40;;;;;;5062153;28;19948;-74
2022/07/15 00:03:03;;;;;;;;;;;20.10;65.80;;;;;;5063620;28;20554;-74
2022/07/15 00:05:29;;;;;;;;;;;20.10;65.70;;;;;;5061164;28;19912;-74
2022/07/15 00:07:55;;;;;;;;;;;20.00;65.90;;;;;;5045308;28;19966;-74
2022/07/15 00:10:23;;;;;;;;;;;20.00;66.10;;;;;;5045122;28;19913;-74
2022/07/15 00:12:52;;;;;;;;;;;20.00;65.30;;;;;;5045141;28;20366;-74
2022/07/15 00:15:28;;;;;;;;;;;20.00;65.90;;;;;;5044980;28;19966;-74
2022/07/15 00:17:54;;;;;;;;;;;19.90;66.00;;;;;;5061928;28;20019;-73
2022/07/15 00:20:20;;;;;;;;;;;19.90;66.10;;;;;;5051010;28;20008;-73
2022/07/15 00:22:46;;;;;;;;;;;19.90;66.30;;;;;;5055265;28;20089;-73
2022/07/15 00:25:12;;;;;;;;;;;19.90;66.20;;;;;;5061614;28;20019;-74
2022/07/15 00:27:57;;;;;;;;;;;19.90;65.60;;;;;;5061971;28;19914;-74
2022/07/15 00:30:24;;;;;;;;;;;19.90;65.70;;;;;;5044882;28;19917;-73
2022/07/15 00:32:50;;;;;;;;;;;19.80;66.30;;;;;;5063222;28;19920;-73
2022/07/15 00:35:15;;;;;;;;;;;19.80;66.40;;;;;;5063447;28;20006;-73
2022/07/15 00:37:41;;;;;;;;;;;19.80;66.40;;;;;;5062474;28;19991;-74
2022/07/15 00:40:07;;;;;;;;;;;19.80;66.60;;;;;;5047325;28;19986;-74
2022/07/15 00:42:44;;;;;;;;;;;19.80;66.50;;;;;;5042580;28;19940;-74
2022/07/15 00:45:20;;;;;;;;;;;19.80;66.70;;;;;;5044491;28;19927;-74
2022/07/15 00:47:50;;;;;;;;;;;19.70;66.70;;;;;;5053946;28;19909;-74
2022/07/15 00:50:16;;;;;;;;;;;19.70;66.70;;;;;;5056837;28;20416;-74
2022/07/15 00:52:44;;;;;;;;;;;19.70;66.50;;;;;;5043389;28;19981;-73
2022/07/15 00:55:11;;;;;;;;;;;19.70;66.60;;;;;;5042957;28;20668;-73
2022/07/15 00:57:37;;;;;;;;;;;19.70;66.70;;;;;;5052069;28;19913;-74
2022/07/15 01:00:04;;;;;;;;;;;19.70;67.30;;;;;;5053643;28;20324;-74
2022/07/15 01:02:30;;;;;;;;;;;19.70;66.80;;;;;;5043839;28;19939;-74
2022/07/15 01:04:56;;;;;;;;;;;19.70;67.00;;;;;;5045599;28;19920;-74
2022/07/15 01:07:21;;;;;;;;;;;19.60;67.10;;;;;;5062661;28;19909;-73
2022/07/15 01:09:47;;;;;;;;;;;19.60;67.30;;;;;;5062439;28;19923;-73
2022/07/15 01:12:13;;;;;;;;;;;19.60;67.10;;;;;;5062662;28;19913;-73
2022/07/15 01:14:38;;;;;;;;;;;19.60;66.90;;;;;;5061810;28;19908;-73
2022/07/15 01:17:08;;;;;;;;;;;19.50;66.50;;;;;;5046719;28;19912;-73
2022/07/15 01:19:33;;;;;;;;;;;19.60;66.70;;;;;;5060954;28;19913;-73
2022/07/15 01:21:59;;;;;;;;;;;19.50;66.80;;;;;;5060965;28;20341;-73
2022/07/15 01:24:24;;;;;;;;;;;19.50;66.80;;;;;;5062668;28;19955;-73
2022/07/15 01:26:50;;;;;;;;;;;19.50;67.40;;;;;;5061985;28;19916;-73
2022/07/15 01:29:15;;;;;;;;;;;19.50;67.50;;;;;;5052106;28;20412;-73
2022/07/15 01:31:41;;;;;;;;;;;19.50;67.40;;;;;;5044019;28;19908;-73
2022/07/15 01:34:06;;;;;;;;;;;19.50;67.50;;;;;;5046858;28;20437;-73
2022/07/15 01:36:32;;;;;;;;;;;19.40;67.30;;;;;;5057297;28;19912;-73
2022/07/15 01:38:57;;;;;;;;;;;19.50;66.90;;;;;;5054767;28;20157;-73
2022/07/15 01:41:23;;;;;;;;;;;19.40;67.10;;;;;;5047223;28;19913;-73
2022/07/15 01:43:48;;;;;;;;;;;19.40;67.00;;;;;;5046127;28;19913;-73
2022/07/15 01:46:14;;;;;;;;;;;19.40;67.60;;;;;;5051572;28;20011;-73
2022/07/15 01:51:24;;;;;;;;;;;19.40;67.60;;;;;;5047571;28;19994;-73
2022/07/15 01:53:49;;;;;;;;;;;19.30;68.00;;;;;;5046014;28;20699;-73
2022/07/15 01:56:15;;;;;;;;;;;19.30;67.50;;;;;;5055010;28;19942;-73
2022/07/15 01:58:41;;;;;;;;;;;19.30;67.40;;;;;;5058034;28;19919;-74
2022/07/15 02:01:07;;;;;;;;;;;19.30;67.30;;;;;;5062918;28;20731;-73
2022/07/15 02:03:33;;;;;;;;;;;19.30;67.30;;;;;;5061545;28;19912;-73
2022/07/15 02:05:58;;;;;;;;;;;19.30;67.60;;;;;;5059200;28;19916;-73
2022/07/15 02:08:24;;;;;;;;;;;19.30;67.30;;;;;;5060814;28;19917;-73
2022/07/15 02:10:50;;;;;;;;;;;19.30;67.20;;;;;;5061066;28;20584;-73
2022/07/15 02:13:16;;;;;;;;;;;19.30;67.20;;;;;;5059926;28;19996;-73
2022/07/15 02:15:42;;;;;;;;;;;19.30;67.30;;;;;;5076787;28;19996;-73
2022/07/15 02:18:07;;;;;;;;;;;19.20;67.40;;;;;;5061554;28;19946;-73
2022/07/15 02:20:33;;;;;;;;;;;19.20;67.70;;;;;;5064221;28;19946;-74
2022/07/15 02:23:01;;;;;;;;;;;19.20;67.50;;;;;;5059950;28;19928;-74
2022/07/15 02:25:27;;;;;;;;;;;19.20;67.60;;;;;;5046898;28;19909;-73
2022/07/15 02:27:56;;;;;;;;;;;19.20;67.40;;;;;;5046680;28;19952;-73
2022/07/15 02:30:23;;;;;;;;;;;19.20;67.60;;;;;;5048178;28;19963;-73
2022/07/15 02:32:49;;;;;;;;;;;19.20;67.40;;;;;;5046950;28;20689;-73
2022/07/15 02:35:14;;;;;;;;;;;19.10;67.40;;;;;;5051217;28;19912;-73
2022/07/15 02:37:41;;;;;;;;;;;19.10;68.00;;;;;;5064967;28;19944;-73
2022/07/15 02:40:08;;;;;;;;;;;19.10;67.80;;;;;;5048649;28;20666;-73
2022/07/15 02:42:34;;;;;;;;;;;19.00;67.80;;;;;;5047311;28;19955;-73
2022/07/15 02:44:59;;;;;;;;;;;19.00;67.90;;;;;;5046833;28;20591;-73
2022/07/15 02:47:25;;;;;;;;;;;19.00;67.60;;;;;;5048535;28;19913;-73
2022/07/15 02:49:50;;;;;;;;;;;19.00;67.80;;;;;;5054897;28;19927;-73
2022/07/15 02:52:16;;;;;;;;;;;19.00;68.10;;;;;;5063409;28;19908;-73
2022/07/15 02:54:41;;;;;;;;;;;18.90;68.30;;;;;;5061820;28;20496;-73
2022/07/15 02:57:07;;;;;;;;;;;18.90;68.40;;;;;;5064661;28;19978;-73
2022/07/15 02:59:33;;;;;;;;;;;18.90;68.50;;;;;;5063749;28;19958;-73
2022/07/15 03:01:59;;;;;;;;;;;18.90;68.60;;;;;;5065109;28;20349;-73
2022/07/15 03:04:24;;;;;;;;;;;18.80;68.60;;;;;;5063528;28;19919;-73
2022/07/15 03:06:50;;;;;;;;;;;18.80;68.60;;;;;;5064531;28;20353;-73
2022/07/15 03:09:15;;;;;;;;;;;18.80;68.70;;;;;;5064557;28;20024;-73
2022/07/15 03:11:41;;;;;;;;;;;18.80;68.80;;;;;;5064581;28;19913;-73
2022/07/15 03:14:06;;;;;;;;;;;18.80;68.80;;;;;;5064636;28;19936;-73
2022/07/15 03:16:33;;;;;;;;;;;18.80;68.80;;;;;;5054378;28;20601;-73
2022/07/15 03:18:59;;;;;;;;;;;18.80;68.80;;;;;;5062711;28;19999;-73
2022/07/15 03:21:24;;;;;;;;;;;18.70;68.90;;;;;;5077280;28;20015;-73
2022/07/15 03:23:50;;;;;;;;;;;18.70;68.90;;;;;;5060655;28;20390;-73
2022/07/15 03:26:15;;;;;;;;;;;18.70;69.00;;;;;;5044711;28;19909;-73
2022/07/15 03:28:41;;;;;;;;;;;18.60;69.00;;;;;;5044346;28;19920;-72
2022/07/15 03:31:06;;;;;;;;;;;18.60;69.00;;;;;;5046137;28;19924;-72
2022/07/15 03:33:32;;;;;;;;;;;18.60;69.00;;;;;;5044828;28;19912;-72
2022/07/15 03:35:57;;;;;;;;;;;18.60;69.20;;;;;;5062563;28;20063;-72
2022/07/15 03:38:23;;;;;;;;;;;18.60;69.20;;;;;;5062134;28;19908;-72
2022/07/15 03:40:48;;;;;;;;;;;18.60;69.30;;;;;;5063988;28;19912;-72
2022/07/15 03:43:14;;;;;;;;;;;18.60;69.20;;;;;;5062025;28;19913;-72
2022/07/15 03:45:40;;;;;;;;;;;18.50;69.30;;;;;;5063741;28;19920;-72
2022/07/15 03:48:06;;;;;;;;;;;18.50;69.40;;;;;;5063514;28;19943;-72
2022/07/15 03:50:31;;;;;;;;;;;18.50;69.40;;;;;;5053490;28;20424;-73
2022/07/15 03:52:57;;;;;;;;;;;18.50;69.50;;;;;;5045131;28;19913;-72
2022/07/15 03:55:22;;;;;;;;;;;18.50;69.40;;;;;;5045017;28;19935;-73
2022/07/15 03:57:48;;;;;;;;;;;18.40;69.50;;;;;;5043259;28;20286;-72
2022/07/15 04:00:14;;;;;;;;;;;18.40;69.50;;;;;;5044848;28;19940;-72
2022/07/15 04:02:40;;;;;;;;;;;18.40;69.50;;;;;;5044059;28;19913;-72
2022/07/15 04:05:06;;;;;;;;;;;18.40;69.50;;;;;;5047502;28;19912;-72
2022/07/15 04:07:32;;;;;;;;;;;18.40;69.60;;;;;;5063071;28;19912;-73
2022/07/15 04:09:57;;;;;;;;;;;18.40;69.50;;;;;;5061610;28;19924;-72
2022/07/15 04:12:23;;;;;;;;;;;18.40;69.60;;;;;;5063012;28;19912;-72
2022/07/15 04:14:48;;;;;;;;;;;18.40;69.70;;;;;;5050263;28;20380;-72
2022/07/15 04:17:14;;;;;;;;;;;18.30;69.70;;;;;;5046124;28;19909;-72
2022/07/15 04:19:39;;;;;;;;;;;18.30;69.70;;;;;;5051627;28;19966;-72
2022/07/15 04:22:05;;;;;;;;;;;18.30;69.80;;;;;;5062955;28;20464;-72
2022/07/15 04:24:30;;;;;;;;;;;18.30;69.70;;;;;;5063012;28;19944;-72
2022/07/15 04:26:56;;;;;;;;;;;18.30;69.70;;;;;;5063516;28;20004;-72
2022/07/15 04:29:22;;;;;;;;;;;18.30;69.80;;;;;;5063288;28;19923;-72
2022/07/15 04:31:47;;;;;;;;;;;18.30;69.70;;;;;;5061468;28;19954;-72
2022/07/15 04:34:13;;;;;;;;;;;18.30;69.80;;;;;;5062738;28;20538;-72
2022/07/15 04:36:39;;;;;;;;;;;18.20;69.70;;;;;;5062497;28;19924;-72
2022/07/15 04:39:04;;;;;;;;;;;18.30;69.80;;;;;;5053608;28;20401;-72
2022/07/15 04:41:30;;;;;;;;;;;18.20;69.70;;;;;;5044622;28;19955;-72
2022/07/15 04:43:55;;;;;;;;;;;18.20;69.80;;;;;;5044824;28;20541;-72
2022/07/15 04:46:21;;;;;;;;;;;18.20;69.60;;;;;;5048678;28;19947;-72
2022/07/15 04:51:30;;;;;;;;;;;18.20;69.70;;;;;;5063296;28;19919;-72
2022/07/15 04:53:56;;;;;;;;;;;18.20;69.70;;;;;;5062811;28;19912;-72
2022/07/15 04:56:21;;;;;;;;;;;18.20;69.80;;;;;;5062629;28;19924;-72
2022/07/15 04:58:47;;;;;;;;;;;18.20;69.70;;;;;;5062894;28;20026;-72
2022/07/15 05:01:12;;;;;;;;;;;18.20;69.70;;;;;;5062879;28;20338;-72
2022/07/15 05:03:38;;;;;;;;;;;18.20;69.80;;;;;;5062835;28;19974;-72
2022/07/15 05:06:04;;;;;;;;;;;18.20;69.80;;;;;;5062737;28;19919;-72
2022/07/15 05:08:29;;;;;;;;;;;18.20;69.70;;;;;;5062214;28;19924;-72
2022/07/15 05:10:55;;;;;;;;;;;18.20;69.90;;;;;;5062646;28;20007;-72
2022/07/15 05:13:20;;;;;;;;;;;18.20;69.80;;;;;;5062499;28;20009;-72
2022/07/15 05:15:46;;;;;;;;;;;18.20;69.60;;;;;;5064679;28;19913;-72
2022/07/15 05:18:11;;;;;;;;;;;18.20;69.80;;;;;;5064970;28;19982;-72
2022/07/15 05:20:37;;;;;;;;;;;18.20;69.80;;;;;;5066635;28;19916;-72
2022/07/15 05:23:03;;;;;;;;;;;18.20;69.70;;;;;;5066330;28;20014;-72
2022/07/15 05:25:29;;;;;;;;;;;18.20;69.50;;;;;;5066565;28;19956;-72
2022/07/15 05:27:54;;;;;;;;;;;18.10;69.60;;;;;;5065896;28;19944;-72
2022/07/15 05:30:20;;;;;;;;;;;18.10;69.80;;;;;;5052375;28;19917;-72
2022/07/15 05:32:46;;;;;;;;;;;18.10;69.70;;;;;;5047663;28;19920;-72
2022/07/15 05:35:14;;;;;;;;;;;18.20;69.80;;;;;;5051411;28;19912;-72
2022/07/15 05:37:40;;;;;;;;;;;18.10;69.70;;;;;;5065845;28;20552;-72
2022/07/15 05:40:06;;;;;;;;;;;18.10;69.80;;;;;;5049162;28;19913;-72
2022/07/15 05:42:32;;;;;;;;;;;18.10;69.80;;;;;;5048300;28;19913;-72
2022/07/15 05:44:58;;;;;;;;;;;18.10;69.50;;;;;;5048058;28;20622;-73
2022/07/15 05:47:23;;;;;;;;;;;18.10;69.50;;;;;;5049687;28;19913;-72
2022/07/15 05:49:49;;;;;;;;;;;18.10;69.50;;;;;;5055927;28;19943;-72
2022/07/15 05:52:14;;;;;;;;;;;18.00;69.40;;;;;;5066475;28;19913;-72
2022/07/15 05:54:40;;;;;;;;;;;18.00;69.40;;;;;;5064745;28;19912;-72
2022/07/15 05:57:05;;;;;;;;;;;18.00;69.40;;;;;;5065693;28;19923;-72
2022/07/15 05:59:31;;;;;;;;;;;18.10;69.50;;;;;;5066106;28;19921;-72
2022/07/15 06:01:57;;;;;;;;;;;18.10;69.60;;;;;;5066252;28;19951;-72
2022/07/15 06:04:26;;;;;;;;;;;18.10;69.40;;;;;;5066288;28;19963;-72
2022/07/15 06:06:52;;;;;;;;;;;18.10;69.40;;;;;;5065987;28;19913;-72
2022/07/15 06:09:18;;;;;;;;;;;18.00;69.30;;;;;;5066199;28;19917;-72
2022/07/15 06:11:44;;;;;;;;;;;18.10;69.40;;;;;;5066240;28;19920;-72
2022/07/15 06:14:09;;;;;;;;;;;18.10;69.30;;;;;;5066564;28;19947;-72
2022/07/15 06:16:35;;;;;;;;;;;18.00;69.40;;;;;;5064991;28;20443;-72
2022/07/15 06:19:00;;;;;;;;;;;18.10;69.30;;;;;;5066369;28;19943;-72
2022/07/15 06:21:26;;;;;;;;;;;18.10;69.30;;;;;;5066101;28;19948;-72
2022/07/15 06:23:52;;;;;;;;;;;18.10;69.30;;;;;;5055121;28;19931;-72
2022/07/15 06:26:17;;;;;;;;;;;18.10;69.30;;;;;;5046628;28;19912;-72
2022/07/15 06:28:42;;;;;;;;;;;18.10;69.10;;;;;;5046088;28;19974;-72
2022/07/15 06:31:08;;;;;;;;;;;18.10;69.30;;;;;;5047794;28;19920;-72
2022/07/15 06:33:33;;;;;;;;;;;18.10;69.20;;;;;;5047707;28;19960;-72
2022/07/15 06:35:59;;;;;;;;;;;18.10;69.20;;;;;;5057077;28;19969;-72
2022/07/15 06:38:24;;;;;;;;;;;18.10;69.30;;;;;;5064104;28;20538;-72
2022/07/15 06:40:50;;;;;;;;;;;18.10;69.10;;;;;;5064595;28;20365;-72
2022/07/15 06:43:15;;;;;;;;;;;18.10;69.10;;;;;;5065808;28;19912;-72
2022/07/15 06:45:41;;;;;;;;;;;18.10;69.10;;;;;;5064280;28;20311;-72
2022/07/15 06:48:06;;;;;;;;;;;18.20;69.00;;;;;;5060060;28;19940;-72
2022/07/15 06:50:32;;;;;;;;;;;18.20;68.90;;;;;;5063410;28;19985;-72
2022/07/15 06:52:58;;;;;;;;;;;18.20;68.80;;;;;;5046578;28;19912;-72
2022/07/15 06:55:23;;;;;;;;;;;18.20;68.70;;;;;;5046669;28;19917;-72
2022/07/15 06:57:48;;;;;;;;;;;18.20;67.80;;;;;;5046735;28;19916;-72
2022/07/15 07:00:15;;;;;;;;;;;18.30;68.50;;;;;;5046882;28;19913;-72
2022/07/15 07:02:41;;;;;;;;;;;18.30;68.50;;;;;;5045507;28;19917;-72
2022/07/15 07:05:06;;;;;;;;;;;18.30;68.30;;;;;;5047535;28;20401;-72
2022/07/15 07:07:32;;;;;;;;;;;18.40;68.20;;;;;;5065450;28;19916;-72
2022/07/15 07:09:58;;;;;;;;;;;18.40;68.20;;;;;;5080648;28;20312;-72
2022/07/15 07:12:23;;;;;;;;;;;18.40;68.00;;;;;;5064729;28;19913;-73
2022/07/15 07:14:49;;;;;;;;;;;18.50;67.90;;;;;;5064634;28;19917;-72
2022/07/15 07:17:14;;;;;;;;;;;18.60;67.80;;;;;;5064624;28;19916;-72
2022/07/15 07:19:40;;;;;;;;;;;18.60;67.80;;;;;;5064529;28;20009;-72
2022/07/15 07:22:05;;;;;;;;;;;18.60;67.50;;;;;;5064513;28;19916;-72
2022/07/15 07:24:31;;;;;;;;;;;18.60;67.60;;;;;;5064620;28;19928;-72
2022/07/15 07:26:56;;;;;;;;;;;18.60;67.60;;;;;;5064215;28;20025;-72
2022/07/15 07:29:22;;;;;;;;;;;18.60;67.40;;;;;;5054127;28;19983;-72
2022/07/15 07:31:48;;;;;;;;;;;18.70;67.40;;;;;;5045852;28;19912;-72
2022/07/15 07:34:14;;;;;;;;;;;18.70;67.40;;;;;;5046133;28;20015;-73
2022/07/15 07:36:39;;;;;;;;;;;18.80;67.30;;;;;;5049400;28;19927;-72
2022/07/15 07:39:05;;;;;;;;;;;18.80;67.20;;;;;;5049284;28;19916;-72
2022/07/15 07:41:30;;;;;;;;;;;18.80;67.10;;;;;;5045429;28;19934;-72
2022/07/15 07:43:56;;;;;;;;;;;18.80;67.10;;;;;;5045687;28;20498;-72
2022/07/15 07:46:21;;;;;;;;;;;18.80;67.00;;;;;;5052041;28;20006;-72
2022/07/15 07:48:47;;;;;;;;;;;18.90;67.00;;;;;;5063765;28;19917;-72
2022/07/15 07:51:12;;;;;;;;;;;18.90;66.90;;;;;;5064070;28;19994;-73
2022/07/15 07:53:38;;;;;;;;;;;18.90;66.90;;;;;;5064075;28;20000;-73
2022/07/15 07:56:03;;;;;;;;;;;19.00;66.90;;;;;;5063874;28;19926;-72
2022/07/15 07:58:29;;;;;;;;;;;19.00;66.70;;;;;;5063927;28;19955;-72
2022/07/15 08:00:55;;;;;;;;;;;19.00;66.70;;;;;;5045422;28;19913;-72
2022/07/15 08:03:21;;;;;;;;;;;19.00;66.70;;;;;;5045356;28;20278;-72
2022/07/15 08:05:46;;;;;;;;;;;19.10;66.70;;;;;;5058706;28;20375;-73
2022/07/15 08:08:13;;;;;;;;;;;19.10;66.60;;;;;;5063049;28;19912;-72
2022/07/15 08:10:40;;;;;;;;;;;19.20;66.40;;;;;;5063329;28;20023;-72
2022/07/15 08:13:06;;;;;;;;;;;19.20;66.30;;;;;;5063232;28;19919;-72
2022/07/15 08:15:31;;;;;;;;;;;19.30;66.20;;;;;;5063748;28;19916;-72
2022/07/15 08:17:57;;;;;;;;;;;19.30;66.80;;;;;;5052672;28;19978;-73
2022/07/15 08:20:22;;;;;;;;;;;19.30;66.20;;;;;;5046846;28;20266;-72
2022/07/15 08:22:48;;;;;;;;;;;19.40;66.00;;;;;;5044686;28;19966;-72
2022/07/15 08:25:14;;;;;;;;;;;19.50;66.00;;;;;;5063030;28;20011;-73
2022/07/15 08:27:39;;;;;;;;;;;19.50;65.80;;;;;;5062934;28;19924;-72
2022/07/15 08:30:05;;;;;;;;;;;19.60;65.80;;;;;;5063100;28;19916;-72
2022/07/15 08:32:31;;;;;;;;;;;19.60;65.70;;;;;;5063325;28;20100;-72
2022/07/15 08:34:56;;;;;;;;;;;19.60;65.60;;;;;;5062846;28;19917;-72
2022/07/15 08:37:24;;;;;;;;;;;19.60;65.60;;;;;;5062618;28;19977;-73
2022/07/15 08:39:50;;;;;;;;;;;19.60;65.60;;;;;;5048237;28;19912;-72
2022/07/15 08:42:17;;;;;;;;;;;19.70;65.70;;;;;;5044558;28;19967;-72
2022/07/15 08:44:43;;;;;;;;;;;19.60;65.40;;;;;;5044353;28;19920;-72
2022/07/15 08:47:09;;;;;;;;;;;19.70;65.60;;;;;;5057160;28;19920;-72
2022/07/15 08:49:37;;;;;;;;;;;19.70;65.50;;;;;;5062079;28;20050;-72
2022/07/15 08:52:03;;;;;;;;;;;19.70;65.50;;;;;;5063092;28;20509;-72
2022/07/15 08:54:29;;;;;;;;;;;19.70;65.40;;;;;;5063228;28;19984;-72
2022/07/15 08:56:54;;;;;;;;;;;19.70;65.20;;;;;;5062514;28;20403;-72
2022/07/15 08:59:20;;;;;;;;;;;19.80;65.20;;;;;;5062921;28;19916;-72
2022/07/15 09:01:48;;;;;;;;;;;19.80;65.20;;;;;;5062786;28;19919;-72
2022/07/15 09:04:14;;;;;;;;;;;19.80;65.30;;;;;;5062775;28;19919;-72
2022/07/15 09:06:41;;;;;;;;;;;19.80;65.30;;;;;;5062821;28;20007;-73
2022/07/15 09:09:26;;;;;;;;;;;19.80;65.20;;;;;;5062778;28;19952;-73
2022/07/15 09:12:03;;;;;;;;;;;19.70;65.10;;;;;;5044268;28;20612;-73
2022/07/15 09:14:29;;;;;;;;;;;19.70;65.60;;;;;;5059525;28;20401;-73
2022/07/15 09:17:05;;;;;;;;;;;19.80;65.60;;;;;;5061683;28;20400;-75
2022/07/15 09:19:50;;;;;;;;;;;19.80;65.50;;;;;;5060857;28;20325;-72
2022/07/15 09:22:16;;;;;;;;;;;19.80;65.40;;;;;;5062016;28;19932;-72
2022/07/15 09:24:42;;;;;;;;;;;19.90;65.30;;;;;;5062050;28;20139;-72
2022/07/15 09:27:27;;;;;;;;;;;19.80;65.00;;;;;;5061357;28;19913;-73
2022/07/15 09:38:05;;;;;;;;;;;20.10;64.60;;;;;;5062383;28;20588;-72
2022/07/15 09:40:31;;;;;;;;;;;20.10;64.40;;;;;;5044059;28;19937;-73
2022/07/15 09:43:06;;;;;;;;;;;20.20;64.20;;;;;;5043698;28;19940;-72
2022/07/15 09:45:32;;;;;;;;;;;20.20;63.90;;;;;;5057982;28;19963;-73
2022/07/15 09:48:08;;;;;;;;;;;20.40;63.80;;;;;;5046990;28;19920;-73
2022/07/15 09:50:34;;;;;;;;;;;20.50;63.50;;;;;;5049382;28;19924;-73
2022/07/15 09:53:03;;;;;;;;;;;20.50;63.40;;;;;;5043982;28;19920;-73
2022/07/15 09:55:28;;;;;;;;;;;20.40;63.40;;;;;;5043791;28;19913;-73
2022/07/15 09:57:54;;;;;;;;;;;20.40;63.50;;;;;;5043825;28;19913;-73
2022/07/15 10:00:20;;;;;;;;;;;20.40;63.50;;;;;;5044184;28;20645;-73
2022/07/15 10:02:45;;;;;;;;;;;20.40;62.80;;;;;;5060452;28;19913;-73
2022/07/15 10:05:11;;;;;;;;;;;20.40;62.90;;;;;;5064175;28;19946;-73
2022/07/15 10:07:37;;;;;;;;;;;20.40;63.40;;;;;;5072802;28;19917;-73
2022/07/15 10:10:03;;;;;;;;;;;20.40;63.30;;;;;;5060433;28;20313;-73
2022/07/15 10:12:30;;;;;;;;;;;20.50;63.30;;;;;;5062889;28;19948;-74
2022/07/15 10:15:02;;;;;;;;;;;20.50;62.30;;;;;;5063528;28;19923;-73
2022/07/15 10:17:30;;;;;;;;;;;20.60;63.00;;;;;;5062314;28;19912;-73
2022/07/15 10:19:56;;;;;;;;;;;20.70;62.70;;;;;;5059212;28;20477;-74
2022/07/15 10:22:35;;;;;;;;;;;20.70;62.60;;;;;;5052625;28;19955;-73
2022/07/15 10:25:06;;;;;;;;;;;20.70;62.70;;;;;;5055950;28;20537;-72
2022/07/15 10:27:58;;;;;;;;;;;20.90;62.30;;;;;;5061552;28;19912;-71
2022/07/15 10:30:24;;;;;;;;;;;20.80;62.20;;;;;;5056768;28;19943;-73
2022/07/15 10:33:05;;;;;;;;;;;20.80;62.60;;;;;;5060422;28;19917;-72
2022/07/15 10:35:41;;;;;;;;;;;20.90;62.60;;;;;;5061490;28;19912;-73
2022/07/15 10:38:26;;;;;;;;;;;21.00;61.80;;;;;;5058225;28;19916;-73
2022/07/15 10:41:05;;;;;;;;;;;21.00;61.70;;;;;;5054309;28;20337;-73
2022/07/15 10:43:46;;;;;;;;;;;21.00;61.30;;;;;;5064599;28;20257;-72
2022/07/15 10:46:17;;;;;;;;;;;21.00;60.40;;;;;;5064652;28;19921;-72
2022/07/15 10:48:43;;;;;;;;;;;21.00;60.50;;;;;;5063906;28;19958;-72
2022/07/15 10:51:09;;;;;;;;;;;21.00;59.90;;;;;;5049136;28;19977;-72
2022/07/15 10:53:42;;;;;;;;;;;21.00;60.10;;;;;;5062396;28;20378;-72
2022/07/15 10:56:28;;;;;;;;;;;21.00;60.30;;;;;;5064300;28;19912;-73
2022/07/15 10:59:08;;;;;;;;;;;21.00;60.40;;;;;;5062284;28;20010;-72
2022/07/15 11:01:34;;;;;;;;;;;21.00;60.00;;;;;;5058303;28;20503;-72
2022/07/15 11:04:20;;;;;;;;;;;21.00;60.00;;;;;;5045564;28;19930;-72
2022/07/15 11:07:07;;;;;;;;;;;21.00;60.00;;;;;;5060395;28;19913;-72
2022/07/15 11:09:50;;;;;;;;;;;21.10;59.80;;;;;;5064216;28;20008;-72
2022/07/15 11:12:17;;;;;;;;;;;21.10;59.40;;;;;;5063340;28;19913;-72
2022/07/15 11:14:42;;;;;;;;;;;21.10;59.70;;;;;;5063627;28;20051;-72
2022/07/15 11:17:09;;;;;;;;;;;21.10;59.70;;;;;;5063975;28;19999;-72
2022/07/15 11:19:35;;;;;;;;;;;21.00;59.80;;;;;;5064163;28;19912;-72
2022/07/15 11:22:01;;;;;;;;;;;21.00;60.50;;;;;;5062613;28;20027;-72
2022/07/15 11:24:28;;;;;;;;;;;21.00;60.80;;;;;;5064290;28;19923;-71
2022/07/15 11:26:54;;;;;;;;;;;21.00;60.70;;;;;;5063765;28;19952;-72
2022/07/15 11:29:19;;;;;;;;;;;21.00;60.00;;;;;;5059826;28;20034;-72
2022/07/15 11:31:45;;;;;;;;;;;21.10;60.00;;;;;;5055617;28;19913;-71
2022/07/15 11:34:11;;;;;;;;;;;21.20;59.90;;;;;;5045787;28;20687;-72
2022/07/15 11:36:36;;;;;;;;;;;21.20;59.70;;;;;;5057439;28;19916;-72
2022/07/15 11:39:02;;;;;;;;;;;21.20;59.50;;;;;;5046439;28;19917;-72
2022/07/15 11:44:45;;;;;;;;;;;21.10;60.00;;;;;;5062151;28;20273;-72
2022/07/15 11:47:04;;;;;;;;;;;21.10;60.50;;;;;;5061540;28;19920;-72
2022/07/15 11:49:33;;;;;;;;;;;21.10;60.80;;;;;;5063519;28;20328;-72
2022/07/15 11:51:59;;;;;;;;;;;21.00;61.10;;;;;;5063697;28;19916;-72
2022/07/15 11:54:26;;;;;;;;;;;21.00;61.20;;;;;;5063708;28;19938;-72
2022/07/15 11:56:55;;;;;;;;;;;21.00;61.10;;;;;;5061591;28;19919;-72
2022/07/15 11:59:21;;;;;;;;;;;21.00;60.60;;;;;;5063692;28;19912;-72
2022/07/15 12:01:46;;;;;;;;;;;21.00;60.10;;;;;;5063677;28;19912;-72
2022/07/15 12:04:12;;;;;;;;;;;21.00;60.50;;;;;;5063816;28;19913;-72
2022/07/15 12:06:38;;;;;;;;;;;21.00;60.60;;;;;;5063237;28;20042;-72
2022/07/15 12:09:07;;;;;;;;;;;21.10;59.80;;;;;;5063031;28;19920;-71
2022/07/15 12:11:39;;;;;;;;;;;21.20;59.10;;;;;;5058517;28;19995;-72
2022/07/15 12:14:09;;;;;;;;;;;21.40;58.10;;;;;;5043503;28;19999;-72
2022/07/15 12:16:45;;;;;;;;;;;21.40;58.20;;;;;;5052220;28;19916;-71
2022/07/15 12:19:15;;;;;;;;;;;21.40;57.50;;;;;;5061795;28;19995;-72
2022/07/15 12:21:41;;;;;;;;;;;21.40;58.20;;;;;;5044567;28;20353;-72
2022/07/15 12:24:17;;;;;;;;;;;21.40;58.60;;;;;;5043490;28;20634;-72
2022/07/15 12:26:54;;;;;;;;;;;21.30;59.20;;;;;;5058981;28;19958;-72
2022/07/15 12:29:25;;;;;;;;;;;21.30;59.20;;;;;;5061675;28;20602;-72
2022/07/15 12:31:58;;;;;;;;;;;21.30;59.40;;;;;;5061270;28;19913;-72
2022/07/15 12:34:43;;;;;;;;;;;21.30;59.20;;;;;;5061886;28;19912;-72
2022/07/15 12:37:09;;;;;;;;;;;21.30;59.10;;;;;;5044404;28;20035;-72
2022/07/15 12:39:52;;;;;;;;;;;21.30;59.50;;;;;;5049510;28;19935;-72
2022/07/15 12:42:18;;;;;;;;;;;21.40;59.50;;;;;;5059949;28;20031;-72
2022/07/15 12:44:43;;;;;;;;;;;21.50;59.10;;;;;;5062646;28;20587;-72
2022/07/15 12:47:09;;;;;;;;;;;21.60;58.70;;;;;;5060442;28;19924;-71
2022/07/15 12:49:37;;;;;;;;;;;21.60;57.90;;;;;;5054799;28;20327;-72
2022/07/15 12:52:12;;;;;;;;;;;21.60;57.10;;;;;;5072990;28;20019;-72
2022/07/15 12:54:37;;;;;;;;;;;21.70;57.10;;;;;;5044943;28;20470;-72
2022/07/15 12:57:03;;;;;;;;;;;21.70;57.20;;;;;;5052277;28;20037;-72
2022/07/15 12:59:28;;;;;;;;;;;21.80;57.70;;;;;;5049639;28;19999;-71
2022/07/15 13:02:03;;;;;;;;;;;22.00;56.60;;;;;;5044400;28;20362;-72
2022/07/15 13:04:29;;;;;;;;;;;22.20;55.80;;;;;;5044271;28;19917;-72
2022/07/15 13:06:54;;;;;;;;;;;22.20;56.40;;;;;;5060029;28;19919;-72
2022/07/15 13:09:20;;;;;;;;;;;22.30;56.20;;;;;;5062778;28;19924;-72
2022/07/15 13:11:56;;;;;;;;;;;22.40;55.90;;;;;;5062641;28;20296;-72
2022/07/15 13:14:22;;;;;;;;;;;22.30;55.60;;;;;;5061496;28;19918;-72
2022/07/15 13:16:47;;;;;;;;;;;22.30;55.60;;;;;;5062578;28;19920;-72
2022/07/15 13:19:13;;;;;;;;;;;22.30;55.60;;;;;;5062622;28;20334;-72
2022/07/15 13:21:38;;;;;;;;;;;22.30;56.10;;;;;;5062026;28;19923;-72
2022/07/15 13:24:04;;;;;;;;;;;22.40;56.30;;;;;;5062640;28;19920;-72
2022/07/15 13:26:29;;;;;;;;;;;22.50;56.40;;;;;;5061893;28;19956;-72
2022/07/15 13:28:55;;;;;;;;;;;22.60;55.90;;;;;;5062717;28;19923;-72
2022/07/15 13:31:20;;;;;;;;;;;22.60;53.70;;;;;;5062874;28;19966;-72
2022/07/15 13:33:46;;;;;;;;;;;22.60;53.50;;;;;;5062655;28;19919;-72
2022/07/15 13:36:11;;;;;;;;;;;22.60;54.20;;;;;;5065173;28;20452;-72
2022/07/15 13:38:37;;;;;;;;;;;22.60;54.80;;;;;;5059712;28;20428;-72
2022/07/15 13:41:02;;;;;;;;;;;22.50;55.50;;;;;;5047642;28;20008;-72
2022/07/15 13:43:28;;;;;;;;;;;22.50;54.60;;;;;;5047431;28;19928;-72
2022/07/15 13:45:53;;;;;;;;;;;22.50;55.50;;;;;;5047570;28;20062;-71
2022/07/15 13:48:19;;;;;;;;;;;22.50;56.00;;;;;;5063394;28;19916;-72
2022/07/15 13:53:28;;;;;;;;;;;22.40;55.30;;;;;;5065261;28;19918;-73
2022/07/15 13:55:54;;;;;;;;;;;22.50;56.10;;;;;;5064003;28;19912;-72
2022/07/15 13:58:19;;;;;;;;;;;22.50;56.30;;;;;;5064285;28;19920;-72
2022/07/15 14:00:46;;;;;;;;;;;22.60;56.80;;;;;;5063589;28;19985;-72
2022/07/15 14:03:11;;;;;;;;;;;22.60;56.70;;;;;;5045734;28;19913;-72
2022/07/15 14:05:37;;;;;;;;;;;22.60;57.10;;;;;;5052399;28;19920;-72
2022/07/15 14:08:02;;;;;;;;;;;22.60;55.20;;;;;;5063795;28;20617;-72
2022/07/15 14:10:28;;;;;;;;;;;22.60;55.00;;;;;;5062983;28;19996;-72
2022/07/15 14:12:54;;;;;;;;;;;22.60;54.80;;;;;;5046657;28;20011;-72
2022/07/15 14:15:19;;;;;;;;;;;22.60;54.90;;;;;;5045782;28;19962;-72
2022/07/15 14:17:45;;;;;;;;;;;22.60;55.50;;;;;;5050166;28;20285;-72
2022/07/15 14:20:10;;;;;;;;;;;22.60;55.50;;;;;;5057227;28;19982;-72
2022/07/15 14:22:36;;;;;;;;;;;22.60;55.40;;;;;;5063464;28;19916;-72
2022/07/15 14:25:02;;;;;;;;;;;22.60;56.10;;;;;;5065301;28;19966;-72
2022/07/15 14:27:27;;;;;;;;;;;22.60;56.00;;;;;;5064450;28;20413;-72
2022/07/15 14:29:53;;;;;;;;;;;22.60;55.40;;;;;;5064403;28;20528;-72
2022/07/15 14:32:18;;;;;;;;;;;22.70;54.60;;;;;;5064690;28;19913;-72
2022/07/15 14:34:44;;;;;;;;;;;22.70;55.20;;;;;;5065417;28;19991;-72